sensor_id;sensor_type;location;lat;lon;timestamp;P1;durP1;ratioP1;P2;durP2;ratioP2
635;SDS011;302;50.206;8.196;2022-07-29T00:01:39;4.67;;;4.20;;
635;SDS011;302;50.206;8.196;2022-07-29T00:04:04;4.50;;;4.20;;
635;SDS011;302;50.206;8.196;2022-07-29T00:06:29;4.40;;;4.00;;
635;SDS011;302;50.206;8.196;2022-07-29T00:08:55;4.57;;;4.03;;
635;SDS011;302;50.206;8.196;2022-07-29T00:11:20;4.60;;;4.30;;
635;SDS011;302;50.206;8.196;2022-07-29T00:13:45;4.13;;;3.83;;
635;SDS011;302;50.206;8.196;2022-07-29T00:16:10;4.80;;;4.47;;
635;SDS011;302;50.206;8.196;2022-07-29T00:18:35;4.87;;;4.43;;
635;SDS011;302;50.206;8.196;2022-07-29T00:21:00;5.10;;;4.80;;
635;SDS011;302;50.206;8.196;2022-07-29T00:23:26;5.13;;;4.77;;
635;SDS011;302;50.206;8.196;2022-07-29T00:25:51;6.17;;;4.80;;
635;SDS011;302;50.206;8.196;2022-07-29T00:28:16;5.20;;;4.80;;
635;SDS011;302;50.206;8.196;2022-07-29T00:30:41;5.10;;;4.70;;
635;SDS011;302;50.206;8.196;2022-07-29T00:33:07;5.05;;;4.65;;
635;SDS011;302;50.206;8.196;2022-07-29T00:35:33;5.77;;;5.20;;
635;SDS011;302;50.206;8.196;2022-07-29T00:38:11;4.90;;;4.50;;
635;SDS011;302;50.206;8.196;2022-07-29T00:40:36;5.63;;;5.13;;
635;SDS011;302;50.206;8.196;2022-07-29T00:43:02;4.77;;;4.47;;
635;SDS011;302;50.206;8.196;2022-07-29T00:45:27;5.10;;;4.70;;
635;SDS011;302;50.206;8.196;2022-07-29T00:47:52;5.90;;;5.50;;
635;SDS011;302;50.206;8.196;2022-07-29T00:50:17;5.70;;;5.20;;
635;SDS011;302;50.206;8.196;2022-07-29T00:52:43;5.70;;;5.20;;
635;SDS011;302;50.206;8.196;2022-07-29T00:55:09;5.50;;;4.80;;
635;SDS011;302;50.206;8.196;2022-07-29T00:57:35;5.70;;;5.10;;
635;SDS011;302;50.206;8.196;2022-07-29T01:00:00;5.67;;;5.27;;
635;SDS011;302;50.206;8.196;2022-07-29T01:02:26;5.57;;;5.00;;
635;SDS011;302;50.206;8.196;2022-07-29T01:04:51;5.27;;;4.90;;
635;SDS011;302;50.206;8.196;2022-07-29T01:07:17;6.40;;;5.80;;
635;SDS011;302;50.206;8.196;2022-07-29T01:09:43;5.80;;;5.40;;
635;SDS011;302;50.206;8.196;2022-07-29T01:12:08;5.50;;;5.10;;
635;SDS011;302;50.206;8.196;2022-07-29T01:14:34;7.00;;;5.03;;
635;SDS011;302;50.206;8.196;2022-07-29T01:17:02;5.77;;;5.27;;
635;SDS011;302;50.206;8.196;2022-07-29T01:19:39;5.95;;;5.50;;
635;SDS011;302;50.206;8.196;2022-07-29T01:22:29;6.05;;;5.55;;
635;SDS011;302;50.206;8.196;2022-07-29T01:25:05;5.55;;;5.05;;
635;SDS011;302;50.206;8.196;2022-07-29T01:30:02;5.55;;;5.05;;
635;SDS011;302;50.206;8.196;2022-07-29T01:32:28;6.43;;;5.37;;
635;SDS011;302;50.206;8.196;2022-07-29T01:39:51;6.07;;;5.68;;
635;SDS011;302;50.206;8.196;2022-07-29T01:42:22;5.40;;;5.00;;
635;SDS011;302;50.206;8.196;2022-07-29T01:44:54;6.95;;;5.25;;
635;SDS011;302;50.206;8.196;2022-07-29T01:47:21;5.63;;;5.22;;
635;SDS011;302;50.206;8.196;2022-07-29T01:49:51;6.00;;;5.38;;
635;SDS011;302;50.206;8.196;2022-07-29T01:52:21;5.97;;;5.40;;
635;SDS011;302;50.206;8.196;2022-07-29T01:54:58;5.65;;;5.22;;
635;SDS011;302;50.206;8.196;2022-07-29T01:57:26;5.80;;;5.30;;
635;SDS011;302;50.206;8.196;2022-07-29T01:59:52;6.00;;;5.50;;
635;SDS011;302;50.206;8.196;2022-07-29T02:02:18;5.50;;;4.85;;
635;SDS011;302;50.206;8.196;2022-07-29T02:04:44;4.90;;;4.60;;
635;SDS011;302;50.206;8.196;2022-07-29T02:07:13;5.75;;;5.25;;
635;SDS011;302;50.206;8.196;2022-07-29T02:09:39;5.45;;;5.00;;
635;SDS011;302;50.206;8.196;2022-07-29T02:12:06;5.78;;;5.28;;
635;SDS011;302;50.206;8.196;2022-07-29T02:14:33;5.40;;;5.00;;
635;SDS011;302;50.206;8.196;2022-07-29T02:16:59;5.28;;;4.88;;
635;SDS011;302;50.206;8.196;2022-07-29T02:19:26;5.55;;;5.15;;
635;SDS011;302;50.206;8.196;2022-07-29T02:21:52;6.03;;;5.53;;
635;SDS011;302;50.206;8.196;2022-07-29T02:24:18;5.72;;;5.32;;
635;SDS011;302;50.206;8.196;2022-07-29T02:26:45;6.03;;;5.50;;
635;SDS011;302;50.206;8.196;2022-07-29T02:29:12;4.85;;;4.45;;
635;SDS011;302;50.206;8.196;2022-07-29T02:31:38;5.68;;;5.20;;
635;SDS011;302;50.206;8.196;2022-07-29T02:34:05;5.63;;;5.00;;
635;SDS011;302;50.206;8.196;2022-07-29T02:36:31;5.75;;;5.25;;
635;SDS011;302;50.206;8.196;2022-07-29T02:38:56;7.70;;;4.97;;
635;SDS011;302;50.206;8.196;2022-07-29T02:41:42;6.05;;;5.43;;
635;SDS011;302;50.206;8.196;2022-07-29T02:44:12;5.72;;;5.22;;
635;SDS011;302;50.206;8.196;2022-07-29T02:46:38;4.90;;;4.50;;
635;SDS011;302;50.206;8.196;2022-07-29T02:49:11;5.43;;;5.03;;
635;SDS011;302;50.206;8.196;2022-07-29T02:51:40;5.93;;;4.97;;
635;SDS011;302;50.206;8.196;2022-07-29T02:54:06;6.00;;;4.72;;
635;SDS011;302;50.206;8.196;2022-07-29T02:56:32;5.10;;;4.70;;
635;SDS011;302;50.206;8.196;2022-07-29T02:59:01;5.03;;;4.63;;
635;SDS011;302;50.206;8.196;2022-07-29T03:01:30;5.22;;;4.78;;
635;SDS011;302;50.206;8.196;2022-07-29T03:03:56;5.60;;;4.90;;
635;SDS011;302;50.206;8.196;2022-07-29T03:06:22;5.17;;;4.77;;
635;SDS011;302;50.206;8.196;2022-07-29T03:08:48;5.10;;;4.60;;
635;SDS011;302;50.206;8.196;2022-07-29T03:11:13;5.40;;;4.97;;
635;SDS011;302;50.206;8.196;2022-07-29T03:13:39;5.30;;;4.90;;
635;SDS011;302;50.206;8.196;2022-07-29T03:16:05;6.27;;;5.67;;
635;SDS011;302;50.206;8.196;2022-07-29T03:18:31;4.90;;;4.50;;
635;SDS011;302;50.206;8.196;2022-07-29T03:20:56;5.30;;;4.90;;
635;SDS011;302;50.206;8.196;2022-07-29T03:23:22;5.60;;;5.10;;
635;SDS011;302;50.206;8.196;2022-07-29T03:25:49;5.13;;;4.65;;
635;SDS011;302;50.206;8.196;2022-07-29T03:28:14;6.57;;;6.03;;
635;SDS011;302;50.206;8.196;2022-07-29T03:30:39;5.23;;;4.80;;
635;SDS011;302;50.206;8.196;2022-07-29T03:33:05;5.20;;;4.77;;
635;SDS011;302;50.206;8.196;2022-07-29T03:35:30;6.07;;;5.60;;
635;SDS011;302;50.206;8.196;2022-07-29T03:37:56;6.18;;;5.60;;
635;SDS011;302;50.206;8.196;2022-07-29T03:40:27;5.40;;;5.10;;
635;SDS011;302;50.206;8.196;2022-07-29T03:42:53;5.63;;;5.20;;
635;SDS011;302;50.206;8.196;2022-07-29T03:45:19;5.93;;;5.43;;
635;SDS011;302;50.206;8.196;2022-07-29T03:47:47;4.72;;;4.43;;
635;SDS011;302;50.206;8.196;2022-07-29T03:50:13;5.90;;;5.30;;
635;SDS011;302;50.206;8.196;2022-07-29T03:52:39;6.18;;;5.13;;
635;SDS011;302;50.206;8.196;2022-07-29T03:55:05;6.53;;;5.97;;
635;SDS011;302;50.206;8.196;2022-07-29T03:57:30;6.67;;;6.17;;
635;SDS011;302;50.206;8.196;2022-07-29T03:59:56;5.80;;;5.40;;
635;SDS011;302;50.206;8.196;2022-07-29T04:02:22;5.70;;;5.20;;
635;SDS011;302;50.206;8.196;2022-07-29T04:04:48;5.90;;;5.40;;
635;SDS011;302;50.206;8.196;2022-07-29T04:07:13;5.40;;;5.00;;
635;SDS011;302;50.206;8.196;2022-07-29T04:09:39;5.80;;;5.30;;
635;SDS011;302;50.206;8.196;2022-07-29T04:12:04;7.20;;;6.17;;
635;SDS011;302;50.206;8.196;2022-07-29T04:14:33;5.77;;;5.37;;
635;SDS011;302;50.206;8.196;2022-07-29T04:16:58;6.10;;;5.35;;
635;SDS011;302;50.206;8.196;2022-07-29T04:19:24;6.77;;;6.20;;
635;SDS011;302;50.206;8.196;2022-07-29T04:21:49;6.30;;;5.70;;
635;SDS011;302;50.206;8.196;2022-07-29T04:24:14;6.23;;;5.73;;
635;SDS011;302;50.206;8.196;2022-07-29T04:26:39;6.90;;;6.30;;
635;SDS011;302;50.206;8.196;2022-07-29T04:29:04;5.77;;;5.37;;
635;SDS011;302;50.206;8.196;2022-07-29T04:31:30;6.10;;;5.60;;
635;SDS011;302;50.206;8.196;2022-07-29T04:33:55;5.47;;;5.00;;
635;SDS011;302;50.206;8.196;2022-07-29T04:36:20;6.00;;;5.57;;
635;SDS011;302;50.206;8.196;2022-07-29T04:38:45;5.93;;;5.43;;
635;SDS011;302;50.206;8.196;2022-07-29T04:41:10;6.57;;;5.97;;
635;SDS011;302;50.206;8.196;2022-07-29T04:43:35;5.43;;;5.03;;
635;SDS011;302;50.206;8.196;2022-07-29T04:46:01;6.03;;;5.53;;
635;SDS011;302;50.206;8.196;2022-07-29T04:48:26;5.67;;;5.27;;
635;SDS011;302;50.206;8.196;2022-07-29T04:50:52;6.20;;;5.63;;
635;SDS011;302;50.206;8.196;2022-07-29T04:53:17;6.20;;;5.70;;
635;SDS011;302;50.206;8.196;2022-07-29T04:55:43;6.17;;;5.60;;
635;SDS011;302;50.206;8.196;2022-07-29T04:58:08;6.13;;;5.50;;
635;SDS011;302;50.206;8.196;2022-07-29T05:00:33;5.50;;;5.10;;
635;SDS011;302;50.206;8.196;2022-07-29T05:02:59;6.03;;;5.53;;
635;SDS011;302;50.206;8.196;2022-07-29T05:05:24;6.00;;;5.50;;
635;SDS011;302;50.206;8.196;2022-07-29T05:07:49;6.17;;;5.73;;
635;SDS011;302;50.206;8.196;2022-07-29T05:10:14;6.20;;;5.68;;
635;SDS011;302;50.206;8.196;2022-07-29T05:12:40;5.50;;;5.10;;
635;SDS011;302;50.206;8.196;2022-07-29T05:15:05;6.10;;;5.70;;
635;SDS011;302;50.206;8.196;2022-07-29T05:17:30;6.33;;;5.80;;
635;SDS011;302;50.206;8.196;2022-07-29T05:19:55;5.80;;;5.40;;
635;SDS011;302;50.206;8.196;2022-07-29T05:22:21;5.83;;;5.33;;
635;SDS011;302;50.206;8.196;2022-07-29T05:24:46;5.77;;;5.37;;
635;SDS011;302;50.206;8.196;2022-07-29T05:27:11;6.63;;;5.90;;
635;SDS011;302;50.206;8.196;2022-07-29T05:29:37;5.73;;;5.30;;
635;SDS011;302;50.206;8.196;2022-07-29T05:32:02;6.00;;;5.60;;
635;SDS011;302;50.206;8.196;2022-07-29T05:34:27;6.40;;;5.90;;
635;SDS011;302;50.206;8.196;2022-07-29T05:36:53;6.20;;;5.70;;
635;SDS011;302;50.206;8.196;2022-07-29T05:39:18;5.90;;;5.47;;
635;SDS011;302;50.206;8.196;2022-07-29T05:41:43;6.03;;;5.63;;
635;SDS011;302;50.206;8.196;2022-07-29T05:44:08;6.73;;;6.07;;
635;SDS011;302;50.206;8.196;2022-07-29T05:46:33;6.80;;;6.23;;
635;SDS011;302;50.206;8.196;2022-07-29T05:48:59;6.60;;;6.10;;
635;SDS011;302;50.206;8.196;2022-07-29T05:51:24;6.90;;;6.30;;
635;SDS011;302;50.206;8.196;2022-07-29T05:53:49;7.27;;;6.57;;
635;SDS011;302;50.206;8.196;2022-07-29T05:56:14;8.07;;;6.43;;
635;SDS011;302;50.206;8.196;2022-07-29T05:58:40;6.60;;;6.10;;
635;SDS011;302;50.206;8.196;2022-07-29T06:01:05;5.43;;;5.03;;
635;SDS011;302;50.206;8.196;2022-07-29T06:03:31;7.40;;;6.80;;
635;SDS011;302;50.206;8.196;2022-07-29T06:05:56;7.10;;;6.40;;
635;SDS011;302;50.206;8.196;2022-07-29T06:08:21;6.77;;;6.23;;
635;SDS011;302;50.206;8.196;2022-07-29T06:10:46;6.60;;;6.00;;
635;SDS011;302;50.206;8.196;2022-07-29T06:13:12;6.83;;;6.33;;
635;SDS011;302;50.206;8.196;2022-07-29T06:15:37;7.07;;;6.57;;
635;SDS011;302;50.206;8.196;2022-07-29T06:18:02;7.00;;;6.50;;
635;SDS011;302;50.206;8.196;2022-07-29T06:20:28;7.37;;;6.10;;
635;SDS011;302;50.206;8.196;2022-07-29T06:22:54;7.40;;;6.80;;
635;SDS011;302;50.206;8.196;2022-07-29T06:25:19;7.30;;;6.72;;
635;SDS011;302;50.206;8.196;2022-07-29T06:27:45;7.60;;;6.93;;
635;SDS011;302;50.206;8.196;2022-07-29T06:30:10;7.20;;;6.60;;
635;SDS011;302;50.206;8.196;2022-07-29T06:32:35;7.67;;;7.13;;
635;SDS011;302;50.206;8.196;2022-07-29T06:35:00;7.17;;;6.57;;
635;SDS011;302;50.206;8.196;2022-07-29T06:37:25;6.63;;;6.03;;
635;SDS011;302;50.206;8.196;2022-07-29T06:39:51;7.53;;;6.83;;
635;SDS011;302;50.206;8.196;2022-07-29T06:42:36;6.43;;;5.80;;
635;SDS011;302;50.206;8.196;2022-07-29T06:45:01;6.50;;;6.00;;
635;SDS011;302;50.206;8.196;2022-07-29T06:47:26;6.90;;;6.50;;
635;SDS011;302;50.206;8.196;2022-07-29T06:49:51;6.53;;;6.00;;
635;SDS011;302;50.206;8.196;2022-07-29T06:52:16;7.47;;;6.93;;
635;SDS011;302;50.206;8.196;2022-07-29T06:54:42;6.23;;;5.73;;
635;SDS011;302;50.206;8.196;2022-07-29T06:57:12;6.47;;;6.00;;
635;SDS011;302;50.206;8.196;2022-07-29T06:59:38;5.97;;;5.47;;
635;SDS011;302;50.206;8.196;2022-07-29T07:02:03;6.10;;;5.60;;
635;SDS011;302;50.206;8.196;2022-07-29T07:04:28;5.90;;;5.40;;
635;SDS011;302;50.206;8.196;2022-07-29T07:06:53;6.20;;;5.60;;
635;SDS011;302;50.206;8.196;2022-07-29T07:09:20;6.50;;;6.00;;
635;SDS011;302;50.206;8.196;2022-07-29T07:11:45;6.47;;;5.87;;
635;SDS011;302;50.206;8.196;2022-07-29T07:14:10;5.70;;;5.30;;
635;SDS011;302;50.206;8.196;2022-07-29T07:16:35;4.75;;;4.45;;
635;SDS011;302;50.206;8.196;2022-07-29T07:19:01;4.97;;;4.57;;
635;SDS011;302;50.206;8.196;2022-07-29T07:21:26;5.53;;;5.13;;
635;SDS011;302;50.206;8.196;2022-07-29T07:23:51;5.80;;;5.40;;
635;SDS011;302;50.206;8.196;2022-07-29T07:26:16;5.07;;;4.67;;
635;SDS011;302;50.206;8.196;2022-07-29T07:28:41;5.00;;;4.60;;
635;SDS011;302;50.206;8.196;2022-07-29T07:31:07;4.90;;;4.50;;
635;SDS011;302;50.206;8.196;2022-07-29T07:33:32;5.10;;;4.70;;
635;SDS011;302;50.206;8.196;2022-07-29T07:35:57;5.13;;;4.50;;
635;SDS011;302;50.206;8.196;2022-07-29T07:38:22;4.90;;;4.50;;
635;SDS011;302;50.206;8.196;2022-07-29T07:40:47;6.27;;;4.70;;
635;SDS011;302;50.206;8.196;2022-07-29T07:43:12;5.00;;;4.60;;
635;SDS011;302;50.206;8.196;2022-07-29T07:45:38;4.47;;;4.17;;
635;SDS011;302;50.206;8.196;2022-07-29T07:48:04;4.50;;;4.15;;
635;SDS011;302;50.206;8.196;2022-07-29T07:50:30;5.37;;;4.40;;
635;SDS011;302;50.206;8.196;2022-07-29T07:52:55;4.83;;;4.30;;
635;SDS011;302;50.206;8.196;2022-07-29T07:55:23;4.22;;;3.78;;
635;SDS011;302;50.206;8.196;2022-07-29T07:57:48;4.37;;;4.07;;
635;SDS011;302;50.206;8.196;2022-07-29T08:00:13;4.73;;;4.33;;
635;SDS011;302;50.206;8.196;2022-07-29T08:02:39;5.37;;;4.20;;
635;SDS011;302;50.206;8.196;2022-07-29T08:05:05;4.40;;;4.10;;
635;SDS011;302;50.206;8.196;2022-07-29T08:07:31;4.93;;;4.20;;
635;SDS011;302;50.206;8.196;2022-07-29T08:09:56;5.40;;;4.20;;
635;SDS011;302;50.206;8.196;2022-07-29T08:12:21;5.18;;;4.68;;
635;SDS011;302;50.206;8.196;2022-07-29T08:14:46;6.50;;;4.50;;
635;SDS011;302;50.206;8.196;2022-07-29T08:17:12;4.43;;;4.13;;
635;SDS011;302;50.206;8.196;2022-07-29T08:19:37;4.43;;;4.13;;
635;SDS011;302;50.206;8.196;2022-07-29T08:22:03;4.73;;;4.33;;
635;SDS011;302;50.206;8.196;2022-07-29T08:24:28;4.87;;;3.87;;
635;SDS011;302;50.206;8.196;2022-07-29T08:27:09;4.90;;;4.50;;
635;SDS011;302;50.206;8.196;2022-07-29T08:29:35;4.20;;;3.80;;
635;SDS011;302;50.206;8.196;2022-07-29T08:32:00;4.93;;;4.43;;
635;SDS011;302;50.206;8.196;2022-07-29T08:34:26;4.80;;;4.30;;
635;SDS011;302;50.206;8.196;2022-07-29T08:36:51;5.50;;;4.60;;
635;SDS011;302;50.206;8.196;2022-07-29T08:39:16;5.53;;;4.23;;
635;SDS011;302;50.206;8.196;2022-07-29T08:41:42;4.80;;;4.40;;
635;SDS011;302;50.206;8.196;2022-07-29T08:44:07;4.47;;;4.07;;
635;SDS011;302;50.206;8.196;2022-07-29T08:46:32;4.13;;;3.73;;
635;SDS011;302;50.206;8.196;2022-07-29T08:48:58;4.77;;;4.40;;
635;SDS011;302;50.206;8.196;2022-07-29T08:51:23;4.60;;;4.30;;
635;SDS011;302;50.206;8.196;2022-07-29T08:53:50;4.27;;;3.90;;
635;SDS011;302;50.206;8.196;2022-07-29T08:56:16;5.03;;;4.63;;
635;SDS011;302;50.206;8.196;2022-07-29T08:58:42;4.50;;;4.10;;
635;SDS011;302;50.206;8.196;2022-07-29T09:01:07;4.70;;;4.30;;
635;SDS011;302;50.206;8.196;2022-07-29T09:03:33;4.50;;;4.07;;
635;SDS011;302;50.206;8.196;2022-07-29T09:05:59;6.70;;;4.20;;
635;SDS011;302;50.206;8.196;2022-07-29T09:08:25;5.50;;;5.00;;
635;SDS011;302;50.206;8.196;2022-07-29T09:10:50;5.17;;;4.70;;
635;SDS011;302;50.206;8.196;2022-07-29T09:13:16;4.43;;;4.03;;
635;SDS011;302;50.206;8.196;2022-07-29T09:15:41;5.67;;;4.43;;
635;SDS011;302;50.206;8.196;2022-07-29T09:18:06;4.40;;;4.00;;
635;SDS011;302;50.206;8.196;2022-07-29T09:20:32;4.90;;;4.30;;
635;SDS011;302;50.206;8.196;2022-07-29T09:23:17;3.77;;;3.47;;
635;SDS011;302;50.206;8.196;2022-07-29T09:25:42;4.60;;;4.10;;
635;SDS011;302;50.206;8.196;2022-07-29T09:28:11;4.73;;;4.30;;
635;SDS011;302;50.206;8.196;2022-07-29T09:30:56;4.13;;;3.83;;
635;SDS011;302;50.206;8.196;2022-07-29T09:33:23;4.97;;;3.90;;
635;SDS011;302;50.206;8.196;2022-07-29T09:38:43;4.13;;;3.83;;
635;SDS011;302;50.206;8.196;2022-07-29T09:41:21;5.27;;;4.20;;
635;SDS011;302;50.206;8.196;2022-07-29T09:43:53;3.90;;;3.60;;
635;SDS011;302;50.206;8.196;2022-07-29T09:46:18;4.77;;;3.83;;
635;SDS011;302;50.206;8.196;2022-07-29T09:48:43;4.53;;;4.23;;
635;SDS011;302;50.206;8.196;2022-07-29T09:51:18;4.70;;;3.97;;
635;SDS011;302;50.206;8.196;2022-07-29T09:53:44;4.40;;;4.00;;
635;SDS011;302;50.206;8.196;2022-07-29T09:56:09;4.77;;;4.37;;
635;SDS011;302;50.206;8.196;2022-07-29T09:58:35;4.13;;;3.83;;
635;SDS011;302;50.206;8.196;2022-07-29T10:01:00;5.13;;;4.20;;
635;SDS011;302;50.206;8.196;2022-07-29T10:03:26;5.83;;;4.13;;
635;SDS011;302;50.206;8.196;2022-07-29T10:06:04;4.80;;;4.20;;
635;SDS011;302;50.206;8.196;2022-07-29T10:08:29;4.10;;;3.80;;
635;SDS011;302;50.206;8.196;2022-07-29T10:11:02;4.30;;;4.00;;
635;SDS011;302;50.206;8.196;2022-07-29T10:13:33;4.00;;;3.70;;
635;SDS011;302;50.206;8.196;2022-07-29T10:15:58;4.50;;;4.20;;
635;SDS011;302;50.206;8.196;2022-07-29T10:18:23;4.53;;;4.03;;
635;SDS011;302;50.206;8.196;2022-07-29T10:20:48;4.50;;;4.10;;
635;SDS011;302;50.206;8.196;2022-07-29T10:23:14;4.67;;;4.27;;
635;SDS011;302;50.206;8.196;2022-07-29T10:25:39;4.70;;;4.30;;
635;SDS011;302;50.206;8.196;2022-07-29T10:28:05;5.53;;;4.70;;
635;SDS011;302;50.206;8.196;2022-07-29T10:30:30;5.30;;;4.27;;
635;SDS011;302;50.206;8.196;2022-07-29T10:33:05;4.70;;;4.30;;
635;SDS011;302;50.206;8.196;2022-07-29T10:41:09;5.90;;;4.33;;
635;SDS011;302;50.206;8.196;2022-07-29T10:43:51;4.57;;;4.20;;
635;SDS011;302;50.206;8.196;2022-07-29T10:46:16;4.40;;;4.00;;
635;SDS011;302;50.206;8.196;2022-07-29T10:51:39;5.10;;;4.60;;
635;SDS011;302;50.206;8.196;2022-07-29T10:54:12;5.43;;;4.87;;
635;SDS011;302;50.206;8.196;2022-07-29T10:56:37;5.20;;;4.63;;
635;SDS011;302;50.206;8.196;2022-07-29T11:01:43;5.90;;;4.57;;
635;SDS011;302;50.206;8.196;2022-07-29T11:04:08;4.80;;;4.40;;
635;SDS011;302;50.206;8.196;2022-07-29T11:09:18;4.80;;;4.40;;
635;SDS011;302;50.206;8.196;2022-07-29T11:11:44;8.60;;;5.33;;
635;SDS011;302;50.206;8.196;2022-07-29T11:14:10;4.67;;;4.27;;
635;SDS011;302;50.206;8.196;2022-07-29T11:16:57;5.37;;;4.87;;
635;SDS011;302;50.206;8.196;2022-07-29T11:19:22;4.43;;;4.13;;
635;SDS011;302;50.206;8.196;2022-07-29T11:21:48;4.90;;;4.47;;
635;SDS011;302;50.206;8.196;2022-07-29T11:27:04;4.80;;;4.40;;
635;SDS011;302;50.206;8.196;2022-07-29T11:29:30;4.10;;;3.80;;
635;SDS011;302;50.206;8.196;2022-07-29T11:32:07;4.80;;;4.50;;
635;SDS011;302;50.206;8.196;2022-07-29T11:34:33;4.60;;;4.30;;
635;SDS011;302;50.206;8.196;2022-07-29T11:39:37;4.30;;;4.00;;
635;SDS011;302;50.206;8.196;2022-07-29T11:47:33;4.70;;;4.30;;
635;SDS011;302;50.206;8.196;2022-07-29T11:49:59;4.60;;;4.30;;
635;SDS011;302;50.206;8.196;2022-07-29T11:52:41;4.73;;;4.40;;
635;SDS011;302;50.206;8.196;2022-07-29T11:55:11;4.47;;;4.17;;
635;SDS011;302;50.206;8.196;2022-07-29T11:57:37;5.00;;;4.60;;
635;SDS011;302;50.206;8.196;2022-07-29T12:00:10;4.30;;;3.83;;
635;SDS011;302;50.206;8.196;2022-07-29T12:02:41;4.50;;;4.10;;
635;SDS011;302;50.206;8.196;2022-07-29T12:05:07;3.87;;;3.60;;
635;SDS011;302;50.206;8.196;2022-07-29T12:07:33;4.77;;;4.47;;
635;SDS011;302;50.206;8.196;2022-07-29T12:09:58;5.03;;;4.73;;
635;SDS011;302;50.206;8.196;2022-07-29T12:12:24;5.27;;;4.20;;
635;SDS011;302;50.206;8.196;2022-07-29T12:14:49;4.60;;;4.30;;
635;SDS011;302;50.206;8.196;2022-07-29T12:17:24;4.67;;;4.37;;
635;SDS011;302;50.206;8.196;2022-07-29T12:19:50;4.40;;;4.10;;
635;SDS011;302;50.206;8.196;2022-07-29T12:22:23;4.60;;;4.20;;
635;SDS011;302;50.206;8.196;2022-07-29T12:24:49;5.07;;;4.43;;
635;SDS011;302;50.206;8.196;2022-07-29T12:27:16;6.20;;;4.55;;
635;SDS011;302;50.206;8.196;2022-07-29T12:29:42;4.83;;;4.53;;
635;SDS011;302;50.206;8.196;2022-07-29T12:32:07;5.93;;;4.53;;
635;SDS011;302;50.206;8.196;2022-07-29T12:34:32;5.03;;;4.73;;
635;SDS011;302;50.206;8.196;2022-07-29T12:36:58;5.33;;;4.93;;
635;SDS011;302;50.206;8.196;2022-07-29T12:39:23;4.70;;;4.40;;
635;SDS011;302;50.206;8.196;2022-07-29T12:41:51;4.50;;;4.20;;
635;SDS011;302;50.206;8.196;2022-07-29T12:44:16;5.17;;;4.77;;
635;SDS011;302;50.206;8.196;2022-07-29T12:46:41;5.63;;;5.13;;
635;SDS011;302;50.206;8.196;2022-07-29T12:49:07;4.87;;;4.50;;
635;SDS011;302;50.206;8.196;2022-07-29T12:51:33;5.40;;;5.00;;
635;SDS011;302;50.206;8.196;2022-07-29T12:54:11;4.80;;;4.50;;
635;SDS011;302;50.206;8.196;2022-07-29T12:56:38;5.20;;;4.80;;
635;SDS011;302;50.206;8.196;2022-07-29T12:59:20;4.60;;;4.30;;
635;SDS011;302;50.206;8.196;2022-07-29T13:01:46;5.93;;;4.50;;
635;SDS011;302;50.206;8.196;2022-07-29T13:04:24;5.50;;;5.03;;
635;SDS011;302;50.206;8.196;2022-07-29T13:06:49;4.60;;;4.30;;
635;SDS011;302;50.206;8.196;2022-07-29T13:09:22;5.53;;;5.03;;
635;SDS011;302;50.206;8.196;2022-07-29T13:11:52;5.80;;;5.30;;
635;SDS011;302;50.206;8.196;2022-07-29T13:14:31;8.30;;;5.80;;
635;SDS011;302;50.206;8.196;2022-07-29T13:21:58;6.45;;;5.15;;
635;SDS011;302;50.206;8.196;2022-07-29T13:24:23;6.45;;;5.82;;
635;SDS011;302;50.206;8.196;2022-07-29T13:26:49;8.97;;;7.07;;
635;SDS011;302;50.206;8.196;2022-07-29T13:29:14;11.50;;;8.20;;
635;SDS011;302;50.206;8.196;2022-07-29T13:31:39;7.90;;;6.57;;
635;SDS011;302;50.206;8.196;2022-07-29T13:34:04;7.83;;;7.03;;
635;SDS011;302;50.206;8.196;2022-07-29T13:36:29;7.82;;;6.90;;
635;SDS011;302;50.206;8.196;2022-07-29T13:38:55;8.52;;;7.72;;
635;SDS011;302;50.206;8.196;2022-07-29T13:41:20;8.50;;;7.60;;
635;SDS011;302;50.206;8.196;2022-07-29T13:43:45;8.63;;;7.40;;
635;SDS011;302;50.206;8.196;2022-07-29T13:46:10;9.20;;;7.30;;
635;SDS011;302;50.206;8.196;2022-07-29T13:48:35;13.07;;;7.78;;
635;SDS011;302;50.206;8.196;2022-07-29T13:51:00;9.37;;;8.47;;
635;SDS011;302;50.206;8.196;2022-07-29T13:53:26;10.13;;;7.80;;
635;SDS011;302;50.206;8.196;2022-07-29T13:55:52;7.90;;;6.72;;
635;SDS011;302;50.206;8.196;2022-07-29T13:58:18;7.33;;;6.73;;
635;SDS011;302;50.206;8.196;2022-07-29T14:00:43;4.63;;;4.23;;
635;SDS011;302;50.206;8.196;2022-07-29T14:03:08;4.30;;;4.00;;
635;SDS011;302;50.206;8.196;2022-07-29T14:05:33;4.53;;;4.15;;
635;SDS011;302;50.206;8.196;2022-07-29T14:07:58;4.40;;;3.57;;
635;SDS011;302;50.206;8.196;2022-07-29T14:10:23;4.60;;;4.20;;
635;SDS011;302;50.206;8.196;2022-07-29T14:12:48;5.10;;;3.33;;
635;SDS011;302;50.206;8.196;2022-07-29T14:15:14;3.67;;;3.40;;
635;SDS011;302;50.206;8.196;2022-07-29T14:17:39;5.03;;;3.50;;
635;SDS011;302;50.206;8.196;2022-07-29T14:20:04;4.10;;;3.60;;
635;SDS011;302;50.206;8.196;2022-07-29T14:22:29;4.03;;;3.63;;
635;SDS011;302;50.206;8.196;2022-07-29T14:24:55;5.07;;;3.42;;
635;SDS011;302;50.206;8.196;2022-07-29T14:27:20;3.72;;;3.42;;
635;SDS011;302;50.206;8.196;2022-07-29T14:29:45;3.60;;;3.37;;
635;SDS011;302;50.206;8.196;2022-07-29T14:32:10;3.50;;;3.23;;
635;SDS011;302;50.206;8.196;2022-07-29T14:34:36;3.70;;;3.40;;
635;SDS011;302;50.206;8.196;2022-07-29T14:37:01;3.40;;;3.10;;
635;SDS011;302;50.206;8.196;2022-07-29T14:39:27;4.00;;;3.60;;
635;SDS011;302;50.206;8.196;2022-07-29T14:41:52;3.73;;;3.43;;
635;SDS011;302;50.206;8.196;2022-07-29T14:44:18;4.47;;;3.83;;
635;SDS011;302;50.206;8.196;2022-07-29T14:46:43;4.10;;;3.80;;
635;SDS011;302;50.206;8.196;2022-07-29T14:49:08;4.10;;;3.80;;
635;SDS011;302;50.206;8.196;2022-07-29T14:51:34;4.23;;;3.93;;
635;SDS011;302;50.206;8.196;2022-07-29T14:53:59;4.60;;;4.30;;
635;SDS011;302;50.206;8.196;2022-07-29T14:56:24;4.27;;;3.97;;
635;SDS011;302;50.206;8.196;2022-07-29T14:58:49;4.20;;;3.90;;
635;SDS011;302;50.206;8.196;2022-07-29T15:01:14;4.73;;;4.40;;
635;SDS011;302;50.206;8.196;2022-07-29T15:03:40;4.73;;;4.43;;
635;SDS011;302;50.206;8.196;2022-07-29T15:06:05;5.03;;;4.73;;
635;SDS011;302;50.206;8.196;2022-07-29T15:08:30;5.20;;;4.90;;
635;SDS011;302;50.206;8.196;2022-07-29T15:10:56;5.50;;;5.10;;
635;SDS011;302;50.206;8.196;2022-07-29T15:13:24;4.70;;;4.40;;
635;SDS011;302;50.206;8.196;2022-07-29T15:15:49;5.57;;;5.17;;
635;SDS011;302;50.206;8.196;2022-07-29T15:18:14;5.20;;;4.90;;
635;SDS011;302;50.206;8.196;2022-07-29T15:20:39;5.80;;;5.40;;
635;SDS011;302;50.206;8.196;2022-07-29T15:23:05;5.57;;;5.17;;
635;SDS011;302;50.206;8.196;2022-07-29T15:25:34;5.40;;;5.10;;
635;SDS011;302;50.206;8.196;2022-07-29T15:28:01;5.20;;;4.80;;
635;SDS011;302;50.206;8.196;2022-07-29T15:30:29;5.50;;;5.20;;
635;SDS011;302;50.206;8.196;2022-07-29T15:32:54;5.90;;;5.50;;
635;SDS011;302;50.206;8.196;2022-07-29T15:35:19;6.30;;;5.90;;
635;SDS011;302;50.206;8.196;2022-07-29T15:37:44;5.70;;;5.30;;
635;SDS011;302;50.206;8.196;2022-07-29T15:40:09;5.50;;;5.10;;
635;SDS011;302;50.206;8.196;2022-07-29T15:42:35;6.03;;;5.63;;
635;SDS011;302;50.206;8.196;2022-07-29T15:45:01;5.67;;;5.27;;
635;SDS011;302;50.206;8.196;2022-07-29T15:47:27;5.63;;;5.13;;
635;SDS011;302;50.206;8.196;2022-07-29T15:49:53;5.43;;;5.10;;
635;SDS011;302;50.206;8.196;2022-07-29T15:52:19;4.67;;;4.37;;
635;SDS011;302;50.206;8.196;2022-07-29T15:54:44;4.43;;;4.13;;
635;SDS011;302;50.206;8.196;2022-07-29T15:57:10;6.00;;;4.33;;
635;SDS011;302;50.206;8.196;2022-07-29T15:59:35;4.40;;;4.07;;
635;SDS011;302;50.206;8.196;2022-07-29T16:02:00;4.03;;;3.73;;
635;SDS011;302;50.206;8.196;2022-07-29T16:04:26;4.70;;;4.20;;
635;SDS011;302;50.206;8.196;2022-07-29T16:06:51;4.30;;;4.00;;
635;SDS011;302;50.206;8.196;2022-07-29T16:09:17;4.23;;;3.93;;
635;SDS011;302;50.206;8.196;2022-07-29T16:11:42;4.17;;;3.87;;
635;SDS011;302;50.206;8.196;2022-07-29T16:14:07;4.67;;;4.27;;
635;SDS011;302;50.206;8.196;2022-07-29T16:16:34;3.97;;;3.67;;
635;SDS011;302;50.206;8.196;2022-07-29T16:19:00;4.47;;;4.23;;
635;SDS011;302;50.206;8.196;2022-07-29T16:21:25;5.22;;;4.75;;